createdAt,value
2023-05-19T00:01:02.490Z,100990.84
2023-05-19T00:04:06.003Z,100973.22
2023-05-19T00:07:11.459Z,100988.09
2023-05-19T00:10:15.210Z,100980.28
2023-05-19T00:13:18.286Z,100982.63
2023-05-19T00:16:22.936Z,100985.56
2023-05-19T00:19:26.315Z,100983.63
2023-05-19T00:22:29.415Z,100982.22
2023-05-19T00:25:32.099Z,100988.59
2023-05-19T00:28:35.158Z,100986.31
2023-05-19T00:31:37.904Z,100990.22
2023-05-19T00:34:41.021Z,100989.87
2023-05-19T00:37:43.713Z,100970.28
2023-05-19T00:40:48.082Z,100997.31
2023-05-19T00:44:30.392Z,100993.41
2023-05-19T00:47:39.863Z,100985.91
2023-05-19T00:50:44.685Z,100988.50
2023-05-19T00:53:51.080Z,100990.88
2023-05-19T00:56:58.503Z,100991.09
2023-05-19T01:00:01.664Z,100991.09
2023-05-19T01:03:11.642Z,100990.78
2023-05-19T01:06:15.755Z,100980.34
2023-05-19T01:09:18.658Z,100991.84
2023-05-19T01:12:21.724Z,101000.09
2023-05-19T01:15:27.116Z,100999.81
2023-05-19T01:18:47.471Z,101003.44
2023-05-19T01:22:01.191Z,101002.97
2023-05-19T01:25:43.025Z,100992.94
2023-05-19T01:29:13.843Z,100995.84
2023-05-19T01:32:21.208Z,100987.34
2023-05-19T01:35:26.314Z,100991.06
2023-05-19T01:38:30.135Z,100986.72
2023-05-19T01:41:35.051Z,100985.00
2023-05-19T01:44:38.356Z,100984.31
2023-05-19T01:47:43.198Z,100991.41
2023-05-19T01:50:47.178Z,100991.00
2023-05-19T01:53:51.525Z,100986.31
2023-05-19T01:57:07.702Z,100983.78
2023-05-19T02:00:39.664Z,100979.87
2023-05-19T02:04:02.296Z,100971.53
2023-05-19T02:07:37.365Z,100974.75
2023-05-19T02:10:45.797Z,100961.09
2023-05-19T02:13:51.405Z,100955.63
2023-05-19T02:16:57.456Z,100963.16
2023-05-19T02:20:00.410Z,100969.97
2023-05-19T02:23:03.522Z,100967.53
2023-05-19T02:26:06.225Z,100970.03
2023-05-19T02:29:09.486Z,100966.19
2023-05-19T02:32:12.695Z,100945.41
2023-05-19T02:35:16.166Z,100949.59
2023-05-19T02:38:18.991Z,100959.37
2023-05-19T02:41:22.397Z,100946.59
2023-05-19T02:44:25.129Z,100961.03
2023-05-19T02:47:28.297Z,100966.97
2023-05-19T02:50:31.340Z,100966.97
2023-05-19T02:53:34.440Z,100970.91
2023-05-19T02:56:37.239Z,100966.34
2023-05-19T02:59:41.181Z,100968.28
2023-05-19T03:02:44.336Z,100969.09
2023-05-19T03:05:47.952Z,100970.56
2023-05-19T03:08:51.136Z,100970.31
2023-05-19T03:11:54.217Z,100965.72
2023-05-19T03:14:56.994Z,100971.91
2023-05-19T03:18:00.060Z,100967.06
2023-05-19T03:21:02.751Z,100973.44
2023-05-19T03:24:06.793Z,100943.31
2023-05-19T03:27:10.312Z,100968.19
2023-05-19T03:30:14.011Z,100957.22
2023-05-19T03:33:18.793Z,100975.19
2023-05-19T03:36:22.724Z,100967.50
2023-05-19T03:39:25.628Z,100963.91
2023-05-19T03:42:28.747Z,100978.38
2023-05-19T03:45:31.667Z,100971.53
2023-05-19T03:48:35.645Z,100979.87
2023-05-19T03:51:39.955Z,100974.78
2023-05-19T03:54:43.956Z,100983.34
2023-05-19T03:57:46.744Z,100986.37
2023-05-19T04:00:50.034Z,100989.44
2023-05-19T04:03:53.085Z,100999.37
2023-05-19T04:06:56.582Z,100995.44
2023-05-19T04:09:59.680Z,100995.50
2023-05-19T04:13:03.980Z,100992.00
2023-05-19T04:16:07.671Z,100991.28
2023-05-19T04:19:10.435Z,100989.59
2023-05-19T04:22:13.636Z,100977.44
2023-05-19T04:25:17.404Z,101008.47
2023-05-19T04:28:21.682Z,101011.31
2023-05-19T04:31:24.618Z,101013.97
2023-05-19T04:34:28.860Z,101019.91
2023-05-19T04:37:32.266Z,101022.78
2023-05-19T04:40:35.548Z,101015.47
2023-05-19T04:43:44.854Z,101018.44
2023-05-19T04:46:48.280Z,101022.56
2023-05-19T04:49:55.743Z,101021.94
2023-05-19T04:52:59.413Z,101023.53
2023-05-19T04:56:02.608Z,101030.91
2023-05-19T04:59:06.998Z,101019.41
2023-05-19T05:02:10.268Z,101026.19
2023-05-19T05:05:13.660Z,101022.03
2023-05-19T05:08:22.946Z,101021.16
2023-05-19T05:11:26.839Z,101026.75
2023-05-19T05:14:30.400Z,101034.28
2023-05-19T05:17:35.538Z,101034.06
2023-05-19T05:20:38.962Z,101022.78
2023-05-19T05:23:42.339Z,101029.59
2023-05-19T05:26:45.888Z,101038.28
2023-05-19T05:29:51.541Z,101023.56
2023-05-19T05:32:56.002Z,101042.19
2023-05-19T05:36:01.601Z,101055.88
2023-05-19T05:39:05.772Z,101061.72
2023-05-19T05:42:12.489Z,101065.84
2023-05-19T05:45:15.919Z,101072.97
2023-05-19T05:48:19.227Z,101072.69
2023-05-19T05:51:23.484Z,101070.78
2023-05-19T05:54:26.765Z,101061.59
2023-05-19T05:57:30.843Z,101073.84
2023-05-19T06:00:34.738Z,101072.03
2023-05-19T06:03:44.488Z,101069.81
2023-05-19T06:06:48.044Z,101076.63
2023-05-19T06:09:52.574Z,101072.84
2023-05-19T06:12:55.678Z,101078.47
2023-05-19T06:16:01.729Z,101066.16
2023-05-19T06:19:05.333Z,101081.00
2023-05-19T06:22:08.452Z,101085.63
2023-05-19T06:25:11.352Z,101069.19
2023-05-19T06:28:15.010Z,101089.03
2023-05-19T06:31:17.891Z,101071.44
2023-05-19T06:34:21.414Z,101086.50
2023-05-19T06:37:24.383Z,101085.03
2023-05-19T06:40:27.405Z,101086.28
2023-05-19T06:43:30.507Z,101105.03
2023-05-19T06:46:33.653Z,101093.03
2023-05-19T06:49:36.432Z,101089.22
2023-05-19T06:52:39.652Z,101100.97
2023-05-19T06:55:54.774Z,101110.09
2023-05-19T06:59:02.285Z,101096.66
2023-05-19T07:02:05.685Z,101097.38
2023-05-19T07:05:09.399Z,101101.50
2023-05-19T07:08:12.458Z,101087.72
2023-05-19T07:11:15.973Z,101090.00
2023-05-19T07:14:19.044Z,101091.28
2023-05-19T07:17:22.632Z,101095.09
2023-05-19T07:20:25.926Z,101085.50
2023-05-19T07:23:29.752Z,101087.94
2023-05-19T07:26:32.399Z,101095.88
2023-05-19T07:29:35.398Z,101081.53
2023-05-19T07:32:38.317Z,101090.75
2023-05-19T07:35:41.580Z,101088.41
2023-05-19T07:38:44.475Z,101089.47
2023-05-19T07:41:52.851Z,101082.00
2023-05-19T07:44:55.643Z,101072.56
2023-05-19T07:47:58.652Z,101069.41
2023-05-19T07:51:03.568Z,101078.91
2023-05-19T07:54:17.140Z,101077.31
2023-05-19T07:57:19.941Z,101069.00
2023-05-19T08:00:23.121Z,101065.06
2023-05-19T08:03:27.099Z,101069.81
2023-05-19T08:06:30.387Z,101070.59
2023-05-19T08:09:33.450Z,101066.63
2023-05-19T08:12:36.239Z,101074.97
2023-05-19T08:15:39.375Z,101054.78
2023-05-19T08:18:42.174Z,101067.03
2023-05-19T08:21:45.565Z,101068.97
2023-05-19T08:24:49.877Z,101073.25
2023-05-19T08:27:52.786Z,101053.84
2023-05-19T08:30:55.869Z,101061.69
2023-05-19T08:33:58.956Z,101061.72
2023-05-19T08:37:01.747Z,101055.34
2023-05-19T08:40:05.916Z,101060.97
2023-05-19T08:43:09.996Z,101051.44
2023-05-19T08:46:15.136Z,101050.00
2023-05-19T08:49:27.905Z,101054.34
2023-05-19T08:57:00.639Z,101046.97
2023-05-19T09:00:14.563Z,101041.13
2023-05-19T09:03:23.689Z,101039.47
2023-05-19T09:06:27.525Z,101043.34
2023-05-19T09:09:30.755Z,101046.87
2023-05-19T09:12:34.410Z,101034.00
2023-05-19T09:15:39.243Z,101046.00
2023-05-19T09:18:55.193Z,101058.38
2023-05-19T09:22:05.864Z,101042.50
2023-05-19T09:25:20.249Z,101044.66
2023-05-19T09:28:28.189Z,101043.37
2023-05-19T09:31:33.710Z,101039.75
2023-05-19T09:34:42.000Z,101042.59
2023-05-19T09:37:44.934Z,101038.78
2023-05-19T09:40:49.959Z,101028.25
2023-05-19T09:43:56.443Z,101028.84
2023-05-19T09:46:59.997Z,101019.63
2023-05-19T09:50:05.342Z,101001.16
2023-05-19T09:53:08.167Z,101013.94
2023-05-19T09:56:11.193Z,101000.59
2023-05-19T09:59:16.222Z,101000.13
2023-05-19T10:02:21.810Z,101004.62
2023-05-19T10:05:25.035Z,101005.53
2023-05-19T10:08:30.629Z,101005.22
2023-05-19T10:11:34.354Z,101005.44
2023-05-19T10:14:37.843Z,101015.63
2023-05-19T10:17:42.599Z,101008.06
2023-05-19T10:20:49.169Z,101013.47
2023-05-19T10:23:52.187Z,101010.37
2023-05-19T10:27:05.626Z,101006.50
2023-05-19T10:30:15.028Z,101002.13
2023-05-19T10:33:22.305Z,101001.00
2023-05-19T10:36:44.959Z,101003.59
2023-05-19T10:39:51.293Z,100992.63
2023-05-19T10:43:07.475Z,100992.28
2023-05-19T10:46:10.193Z,100987.19
2023-05-19T10:49:21.640Z,100988.38
2023-05-19T10:52:29.879Z,100984.34
2023-05-19T10:55:47.702Z,100972.91
2023-05-19T10:58:50.764Z,100979.47
2023-05-19T11:01:53.841Z,100979.75
2023-05-19T11:05:09.453Z,100977.91
2023-05-19T11:08:12.888Z,100980.50
2023-05-19T11:11:16.906Z,100967.69
2023-05-19T11:14:27.489Z,100971.28
2023-05-19T11:17:30.189Z,100966.00
2023-05-19T11:20:35.090Z,100972.97
2023-05-19T11:23:41.069Z,100974.00
2023-05-19T11:26:45.715Z,100974.78
2023-05-19T11:29:49.437Z,100980.75
2023-05-19T11:32:54.388Z,100979.66
2023-05-19T11:36:00.831Z,100981.50
2023-05-19T11:39:04.601Z,100973.69
2023-05-19T11:42:11.117Z,100971.91
2023-05-19T11:45:14.234Z,100978.88
2023-05-19T11:48:17.671Z,100978.19
2023-05-19T11:51:21.810Z,100971.59
2023-05-19T11:54:33.684Z,100967.56
2023-05-19T11:57:37.186Z,100963.69
2023-05-19T12:00:41.834Z,100971.75
2023-05-19T12:03:44.965Z,100957.44
2023-05-19T12:06:49.363Z,100953.16
2023-05-19T12:09:53.291Z,100954.38
2023-05-19T12:12:57.272Z,100950.13
2023-05-19T12:16:01.484Z,100947.09
2023-05-19T12:19:07.074Z,100943.91
2023-05-19T12:22:10.495Z,100941.38
2023-05-19T12:25:13.550Z,100939.00
2023-05-19T12:28:17.209Z,100935.22
2023-05-19T12:31:23.828Z,100926.28
2023-05-19T12:34:26.926Z,100926.72
2023-05-19T12:37:30.198Z,100924.47
2023-05-19T12:40:37.779Z,100908.91
2023-05-19T12:43:41.335Z,100910.72
2023-05-19T12:46:44.500Z,100911.84
2023-05-19T12:50:09.506Z,100903.50
2023-05-19T12:53:13.199Z,100894.47
2023-05-19T12:56:16.379Z,100890.94
2023-05-19T12:59:37.364Z,100882.22
2023-05-19T13:03:00.258Z,100893.94
2023-05-19T13:06:03.577Z,100891.28
2023-05-19T13:09:07.292Z,100878.75
2023-05-19T13:12:10.319Z,100885.34
2023-05-19T13:15:12.955Z,100886.38
2023-05-19T13:18:16.053Z,100886.34
2023-05-19T13:21:18.710Z,100892.06
2023-05-19T13:24:21.622Z,100888.91
2023-05-19T13:27:24.906Z,100882.88
2023-05-19T13:30:28.347Z,100878.00
2023-05-19T13:33:31.002Z,100891.00
2023-05-19T13:36:35.091Z,100874.72
2023-05-19T13:39:37.858Z,100886.41
2023-05-19T13:42:41.212Z,100885.38
2023-05-19T13:45:44.589Z,100880.28
2023-05-19T13:48:47.530Z,100887.03
2023-05-19T13:51:50.253Z,100884.56
2023-05-19T13:54:54.882Z,100883.34
2023-05-19T13:57:57.642Z,100889.19
2023-05-19T14:01:00.590Z,100885.19
2023-05-19T14:04:04.420Z,100878.41
2023-05-19T14:07:09.768Z,100863.53
2023-05-19T14:10:12.798Z,100867.31
2023-05-19T14:13:31.512Z,100885.81
2023-05-19T14:16:37.600Z,100885.00
2023-05-19T14:19:41.038Z,100869.00
2023-05-19T14:22:43.965Z,100882.31
2023-05-19T14:25:46.605Z,100888.97
2023-05-19T14:28:49.536Z,100875.44
2023-05-19T14:31:52.128Z,100883.41
2023-05-19T14:34:55.400Z,100876.63
2023-05-19T14:37:58.050Z,100871.37
2023-05-19T14:41:01.093Z,100863.09
2023-05-19T14:44:04.011Z,100858.25
2023-05-19T14:47:07.551Z,100862.06
2023-05-19T14:50:10.455Z,100864.41
2023-05-19T14:53:13.438Z,100856.84
2023-05-19T14:56:16.048Z,100870.72
2023-05-19T14:59:19.052Z,100871.94
2023-05-19T15:02:21.775Z,100864.00
2023-05-19T15:05:24.717Z,100859.41
2023-05-19T15:08:27.617Z,100856.09
2023-05-19T15:11:30.636Z,100846.63
2023-05-19T15:14:33.242Z,100851.34
2023-05-19T15:17:36.519Z,100849.09
2023-05-19T15:20:39.206Z,100852.47
2023-05-19T15:23:42.213Z,100848.97
2023-05-19T15:26:45.853Z,100847.53
2023-05-19T15:29:48.822Z,100855.69
2023-05-19T15:32:51.481Z,100843.06
2023-05-19T15:35:54.536Z,100851.34
2023-05-19T15:38:57.273Z,100847.44
2023-05-19T15:42:00.333Z,100843.00
2023-05-19T15:45:03.115Z,100830.41
2023-05-19T15:48:06.370Z,100837.37
2023-05-19T15:51:09.062Z,100825.62
2023-05-19T15:54:12.009Z,100832.31
2023-05-19T15:57:14.628Z,100827.56
2023-05-19T16:00:17.648Z,100831.22
2023-05-19T16:03:22.552Z,100832.12
2023-05-19T16:06:27.666Z,100827.56
2023-05-19T16:09:30.789Z,100828.03
2023-05-19T16:12:33.789Z,100819.75
2023-05-19T16:15:36.681Z,100831.72
2023-05-19T16:18:39.377Z,100835.31
2023-05-19T16:21:42.406Z,100830.72
2023-05-19T16:24:45.094Z,100833.66
2023-05-19T16:27:47.990Z,100839.47
2023-05-19T16:30:50.721Z,100840.50
2023-05-19T16:33:54.136Z,100849.12
2023-05-19T16:36:56.801Z,100845.31
2023-05-19T16:39:59.886Z,100846.25
2023-05-19T16:43:02.579Z,100833.03
2023-05-19T16:46:05.771Z,100846.47
2023-05-19T16:49:08.532Z,100838.78
2023-05-19T16:52:11.675Z,100836.78
2023-05-19T16:55:19.790Z,100841.66
2023-05-19T16:58:22.806Z,100821.00
2023-05-19T17:01:25.605Z,100833.84
2023-05-19T17:04:30.639Z,100836.94
2023-05-19T17:07:33.681Z,100831.09
2023-05-19T17:10:38.671Z,100837.06
2023-05-19T17:13:43.570Z,100822.41
2023-05-19T17:16:46.732Z,100820.13
2023-05-19T17:19:49.397Z,100822.91
2023-05-19T17:22:52.827Z,100822.06
2023-05-19T17:25:55.853Z,100829.91
2023-05-19T17:28:58.908Z,100838.13
2023-05-19T17:32:01.639Z,100832.16
2023-05-19T17:35:06.778Z,100827.31
2023-05-19T17:38:09.532Z,100822.72
2023-05-19T17:41:14.170Z,100819.56
2023-05-19T17:44:16.845Z,100806.84
2023-05-19T17:47:19.693Z,100823.59
2023-05-19T17:50:22.318Z,100827.00
2023-05-19T17:53:26.319Z,100823.09
2023-05-19T17:56:34.105Z,100804.31
2023-05-19T17:59:37.319Z,100835.56
2023-05-19T18:02:40.450Z,100831.41
2023-05-19T18:05:44.734Z,100836.31
2023-05-19T18:08:50.682Z,100832.75
2023-05-19T18:11:55.114Z,100832.50
2023-05-19T18:14:57.958Z,100835.41
2023-05-19T18:18:01.439Z,100840.19
2023-05-19T18:21:04.415Z,100840.78
2023-05-19T18:24:07.375Z,100838.88
2023-05-19T18:27:10.106Z,100843.37
2023-05-19T18:30:13.232Z,100843.78
2023-05-19T18:33:16.470Z,100850.19
2023-05-19T18:36:19.723Z,100852.53
2023-05-19T18:39:22.367Z,100849.47
2023-05-19T18:42:25.546Z,100859.91
2023-05-19T18:45:28.247Z,100853.38
2023-05-19T18:48:32.141Z,100865.66
2023-05-19T18:51:36.139Z,100859.38
2023-05-19T18:54:40.677Z,100860.94
2023-05-19T18:57:43.408Z,100855.41
2023-05-19T19:00:46.414Z,100852.75
2023-05-19T19:03:49.507Z,100846.81
2023-05-19T19:06:52.554Z,100846.84
2023-05-19T19:09:55.261Z,100870.94
2023-05-19T19:12:58.263Z,100870.19
2023-05-19T19:16:01.200Z,100865.13
2023-05-19T19:19:04.349Z,100864.03
2023-05-19T19:22:07.064Z,100867.69
2023-05-19T19:25:10.127Z,100867.34
2023-05-19T19:28:12.779Z,100867.44
2023-05-19T19:31:15.843Z,100874.63
2023-05-19T19:34:19.966Z,100887.72
2023-05-19T19:37:22.863Z,100896.84
2023-05-19T19:40:25.579Z,100897.75
2023-05-19T19:43:28.466Z,100898.97
2023-05-19T19:46:31.173Z,100906.50
2023-05-19T19:49:34.160Z,100906.88
2023-05-19T19:52:37.306Z,100902.16
2023-05-19T19:55:40.237Z,100898.22
2023-05-19T19:58:42.897Z,100902.16
2023-05-19T20:01:45.997Z,100880.03
2023-05-19T20:04:49.696Z,100899.03
2023-05-19T20:07:52.363Z,100896.25
2023-05-19T20:10:55.288Z,100901.78
2023-05-19T20:13:57.905Z,100910.47
2023-05-19T20:17:00.895Z,100914.00
2023-05-19T20:20:08.098Z,100912.03
2023-05-19T20:23:12.643Z,100922.69
2023-05-19T20:26:16.026Z,100919.13
2023-05-19T20:29:19.099Z,100917.94
2023-05-19T20:32:21.805Z,100911.56
2023-05-19T20:35:25.165Z,100907.28
2023-05-19T20:38:27.804Z,100907.28
2023-05-19T20:41:31.378Z,100904.50
2023-05-19T20:44:34.061Z,100900.50
2023-05-19T20:47:37.183Z,100905.59
2023-05-19T20:50:40.078Z,100896.44
2023-05-19T20:53:43.127Z,100901.94
2023-05-19T20:56:46.113Z,100903.09
2023-05-19T20:59:49.108Z,100909.75
2023-05-19T21:02:52.080Z,100900.25
2023-05-19T21:05:55.694Z,100901.03
2023-05-19T21:08:58.398Z,100893.91
2023-05-19T21:12:01.398Z,100897.09
2023-05-19T21:15:05.967Z,100898.66
2023-05-19T21:18:11.951Z,100893.00
2023-05-19T21:21:14.887Z,100878.69
2023-05-19T21:24:17.879Z,100882.66
2023-05-19T21:27:20.799Z,100874.81
2023-05-19T21:30:24.419Z,100856.91
2023-05-19T21:33:27.007Z,100871.56
2023-05-19T21:36:29.994Z,100869.97
2023-05-19T21:39:32.674Z,100868.00
2023-05-19T21:42:35.917Z,100866.44
2023-05-19T21:45:38.858Z,100866.81
2023-05-19T21:48:41.806Z,100855.66
2023-05-19T21:51:44.430Z,100851.16
2023-05-19T21:54:47.916Z,100853.03
2023-05-19T21:57:50.557Z,100849.12
2023-05-19T22:00:57.015Z,100842.41
2023-05-19T22:04:00.002Z,100834.38
2023-05-19T22:07:02.680Z,100852.53
2023-05-19T22:10:06.068Z,100847.75
2023-05-19T22:13:08.764Z,100844.19
2023-05-19T22:16:11.692Z,100840.25
2023-05-19T22:19:14.882Z,100830.00
2023-05-19T22:22:17.796Z,100819.78
2023-05-19T22:25:20.550Z,100823.94
2023-05-19T22:28:23.458Z,100820.81
2023-05-19T22:31:26.088Z,100823.19
2023-05-19T22:34:29.129Z,100813.00
2023-05-19T22:37:31.871Z,100821.44
2023-05-19T22:40:34.978Z,100811.94
2023-05-19T22:43:38.023Z,100810.47
2023-05-19T22:46:41.082Z,100811.66
2023-05-19T22:49:43.856Z,100813.44
2023-05-19T22:52:46.770Z,100810.50
2023-05-19T22:55:49.400Z,100810.81
2023-05-19T22:58:52.301Z,100803.34
2023-05-19T23:01:55.068Z,100798.94
2023-05-19T23:04:57.993Z,100797.34
2023-05-19T23:08:00.694Z,100798.88
2023-05-19T23:11:03.694Z,100801.28
2023-05-19T23:14:06.346Z,100786.34
2023-05-19T23:17:09.353Z,100792.50
2023-05-19T23:20:12.913Z,100798.72
2023-05-19T23:23:16.375Z,100789.00
2023-05-19T23:26:19.078Z,100787.34
2023-05-19T23:29:22.056Z,100783.03
2023-05-19T23:32:24.635Z,100755.47
2023-05-19T23:35:27.726Z,100783.94
2023-05-19T23:38:30.405Z,100779.87
2023-05-19T23:41:33.344Z,100793.34
2023-05-19T23:44:36.217Z,100790.75
2023-05-19T23:47:39.376Z,100799.41
2023-05-19T23:50:42.102Z,100800.59
2023-05-19T23:53:45.049Z,100801.34
2023-05-19T23:56:47.818Z,100795.84
2023-05-19T23:59:50.753Z,100797.34
